Time;durP1;ratioP1;P1;durP2;ratioP2;P2;SDS_P1;SDS_P2;PMS_P1;PMS_P2;Temp;Humidity;BMP_temperature;BMP_pressure;BME280_temperature;BME280_humidity;BME280_pressure;Samples;Min_cycle;Max_cycle;Signal;HPM_P1;HPM_P2
2021/08/08 00:02:16;;;;;;;9.90;6.50;;;;;;;15.53;88.29;97269.97;1728009;83;20924;-73
2021/08/08 00:04:42;;;;;;;13.30;7.03;;;;;;;15.50;88.92;97256.98;1728161;83;21001;-73
2021/08/08 00:07:08;;;;;;;13.80;7.80;;;;;;;15.51;87.88;97253.12;1728289;82;21007;-73
2021/08/08 00:09:34;;;;;;;11.25;6.90;;;;;;;15.52;87.48;97250.63;1728276;82;20946;-79
2021/08/08 00:12:00;;;;;;;12.75;6.87;;;;;;;15.52;89.79;97252.55;1728080;82;21075;-79
2021/08/08 00:14:26;;;;;;;7.42;5.58;;;;;;;15.54;88.00;97244.83;1728342;82;20847;-79
2021/08/08 00:16:52;;;;;;;9.73;6.17;;;;;;;15.47;89.39;97253.56;1728154;83;21553;-79
2021/08/08 00:19:17;;;;;;;8.50;6.35;;;;;;;15.45;88.84;97251.70;1742450;82;20835;-73
2021/08/08 00:21:43;;;;;;;8.58;6.03;;;;;;;15.43;89.74;97252.60;1743501;82;20854;-79
2021/08/08 00:24:09;;;;;;;11.50;6.58;;;;;;;15.43;88.96;97255.33;1736394;82;21981;-79
2021/08/08 00:26:35;;;;;;;11.35;7.33;;;;;;;15.46;89.78;97257.96;1736601;82;20840;-73
2021/08/08 00:29:01;;;;;;;10.15;6.70;;;;;;;15.45;88.75;97256.36;1736323;82;20922;-79
2021/08/08 00:31:27;;;;;;;13.90;7.28;;;;;;;15.38;89.87;97246.52;1736531;82;20970;-73
2021/08/08 00:33:53;;;;;;;14.53;7.97;;;;;;;15.40;88.59;97264.76;1736403;81;20890;-79
2021/08/08 00:36:20;;;;;;;9.83;6.87;;;;;;;15.38;90.46;97256.08;1736583;82;22062;-79
2021/08/08 00:38:46;;;;;;;8.78;6.00;;;;;;;15.39;88.94;97255.77;1736187;81;21002;-73
2021/08/08 00:41:12;;;;;;;10.10;5.33;;;;;;;15.35;89.99;97247.19;1736625;82;21416;-73
2021/08/08 00:43:39;;;;;;;8.95;4.83;;;;;;;15.37;90.65;97242.99;1736197;82;20867;-79
2021/08/08 00:46:05;;;;;;;13.58;5.62;;;;;;;15.41;90.13;97243.95;1736618;82;20915;-74
2021/08/08 00:48:31;;;;;;;12.25;7.15;;;;;;;15.50;89.17;97258.34;1736389;82;21962;-78
2021/08/08 00:50:57;;;;;;;10.88;7.62;;;;;;;15.57;88.50;97259.20;1736505;82;20903;-79
2021/08/08 00:53:23;;;;;;;10.80;5.62;;;;;;;15.46;89.91;97245.11;1677951;82;21415;-79
2021/08/08 00:55:48;;;;;;;8.50;6.08;;;;;;;15.46;88.93;97244.31;1736514;82;20843;-73
2021/08/08 00:58:14;;;;;;;12.75;7.15;;;;;;;15.51;88.77;97255.85;1736349;81;20847;-80
2021/08/08 01:00:40;;;;;;;12.03;6.97;;;;;;;15.57;88.34;97252.94;1736540;82;21236;-79
2021/08/08 01:03:09;;;;;;;9.85;5.97;;;;;;;15.51;88.21;97247.66;1736314;82;20939;-79
2021/08/08 01:05:40;;;;;;;11.73;6.47;;;;;;;15.53;88.43;97241.30;1736336;82;20922;-73
2021/08/08 01:08:09;;;;;;;11.97;6.65;;;;;;;15.49;88.77;97225.92;1730608;82;21351;-78
2021/08/08 01:10:35;;;;;;;8.35;4.97;;;;;;;15.43;89.02;97226.67;1736342;82;21363;-73
2021/08/08 01:13:01;;;;;;;9.85;5.95;;;;;;;15.47;89.23;97223.53;1739989;82;21091;-78
2021/08/08 01:15:27;;;;;;;12.82;5.92;;;;;;;15.48;89.14;97226.48;1736255;82;20911;-73
2021/08/08 01:17:53;;;;;;;9.08;5.28;;;;;;;15.56;89.08;97230.30;1736403;82;20819;-73
2021/08/08 01:20:19;;;;;;;12.07;6.45;;;;;;;15.63;88.87;97225.69;1736355;82;20935;-73
2021/08/08 01:22:51;;;;;;;10.18;5.28;;;;;;;15.71;89.65;97222.09;1731412;82;21585;-73
2021/08/08 01:25:17;;;;;;;12.80;6.17;;;;;;;15.80;88.81;97223.64;1728150;83;21399;-79
2021/08/08 01:27:43;;;;;;;13.65;5.97;;;;;;;15.84;89.77;97210.70;1728262;83;20851;-73
2021/08/08 01:30:09;;;;;;;8.38;5.53;;;;;;;15.88;88.64;97243.03;1728290;83;21045;-73
2021/08/08 01:32:35;;;;;;;10.53;5.40;;;;;;;15.89;89.04;97249.52;1728193;82;20923;-73
2021/08/08 01:35:02;;;;;;;6.97;5.62;;;;;;;15.97;88.20;97239.66;1728486;82;20907;-73
2021/08/08 01:37:29;;;;;;;7.85;5.30;;;;;;;15.94;88.30;97229.41;1728424;83;20995;-73
2021/08/08 01:40:09;;;;;;;12.50;5.30;;;;;;;15.99;87.92;97223.19;1728125;83;20999;-74
2021/08/08 01:42:38;;;;;;;9.08;5.78;;;;;;;15.96;87.83;97209.38;1726246;82;20911;-74
2021/08/08 01:45:05;;;;;;;8.98;4.62;;;;;;;15.96;88.27;97210.18;1728187;83;20967;-74
2021/08/08 01:47:34;;;;;;;5.50;3.92;;;;;;;15.96;88.59;97206.08;1728306;83;21320;-74
2021/08/08 01:50:00;;;;;;;7.28;3.85;;;;;;;16.03;89.04;97210.45;1707753;82;21955;-73
2021/08/08 01:52:26;;;;;;;8.00;5.25;;;;;;;16.10;88.16;97219.48;1728298;82;20907;-79
2021/08/08 01:54:53;;;;;;;10.95;5.78;;;;;;;16.13;87.73;97220.73;1728043;83;20989;-79
2021/08/08 01:57:19;;;;;;;7.90;4.70;;;;;;;16.15;87.40;97224.75;1728320;83;20998;-79
2021/08/08 01:59:45;;;;;;;10.53;4.70;;;;;;;16.12;87.88;97225.97;1728228;83;20828;-74
2021/08/08 02:02:14;;;;;;;6.42;4.47;;;;;;;16.10;88.40;97213.22;1728413;82;22007;-79
2021/08/08 02:04:40;;;;;;;7.72;4.50;;;;;;;16.06;88.83;97228.92;1728013;82;20943;-79
2021/08/08 02:07:11;;;;;;;7.75;4.35;;;;;;;16.11;88.31;97223.02;1728316;83;20962;-79
2021/08/08 02:09:37;;;;;;;7.25;4.62;;;;;;;16.18;88.39;97226.02;1728319;83;20968;-73
2021/08/08 02:12:04;;;;;;;6.70;5.33;;;;;;;16.24;88.69;97217.84;1728477;82;20946;-73
2021/08/08 02:14:30;;;;;;;13.15;6.33;;;;;;;16.29;88.55;97221.15;1728193;83;21335;-74
2021/08/08 02:16:56;;;;;;;6.55;5.00;;;;;;;16.30;88.13;97221.95;1728399;83;20871;-79
2021/08/08 02:19:22;;;;;;;8.83;5.78;;;;;;;16.31;87.76;97217.50;1728135;82;20887;-73
2021/08/08 02:21:48;;;;;;;8.78;5.17;;;;;;;16.36;87.50;97213.78;1728035;83;21335;-73
2021/08/08 02:24:14;;;;;;;7.60;4.05;;;;;;;16.40;87.67;97217.42;1728081;83;21496;-73
2021/08/08 02:26:40;;;;;;;9.30;4.72;;;;;;;16.41;88.70;97207.28;1728555;82;21243;-73
2021/08/08 02:29:06;;;;;;;13.15;4.50;;;;;;;16.47;87.55;97217.67;1728164;82;20878;-73
2021/08/08 02:31:40;;;;;;;6.33;4.50;;;;;;;16.51;87.20;97216.45;1728373;83;20859;-73
2021/08/08 02:34:06;;;;;;;6.08;4.15;;;;;;;16.53;87.44;97220.44;1727996;83;20939;-79
2021/08/08 02:36:33;;;;;;;6.22;4.00;;;;;;;16.54;87.13;97234.91;1728458;83;20991;-73
2021/08/08 02:38:59;;;;;;;6.35;4.72;;;;;;;16.54;87.03;97241.75;1728100;83;21160;-74
2021/08/08 02:41:24;;;;;;;6.97;4.28;;;;;;;16.57;86.94;97253.37;1728310;82;20891;-73
2021/08/08 02:43:50;;;;;;;5.95;4.25;;;;;;;16.56;86.98;97259.41;1728044;82;20922;-79
2021/08/08 02:46:16;;;;;;;7.60;4.85;;;;;;;16.57;87.22;97266.47;1728342;82;20827;-79
2021/08/08 02:48:42;;;;;;;6.83;4.45;;;;;;;16.52;87.70;97274.11;1728262;82;21025;-74
2021/08/08 02:51:08;;;;;;;7.22;4.42;;;;;;;16.51;87.90;97283.45;1728462;83;21080;-79
2021/08/08 02:53:34;;;;;;;8.35;4.62;;;;;;;16.48;87.18;97292.30;1728192;82;20907;-79
2021/08/08 02:56:00;;;;;;;7.47;4.05;;;;;;;16.51;87.20;97301.22;1728059;83;20890;-73
2021/08/08 02:58:26;;;;;;;6.15;3.90;;;;;;;16.54;88.52;97308.74;1728176;83;20828;-79
2021/08/08 03:00:52;;;;;;;6.37;3.95;;;;;;;16.49;87.68;97308.41;1728129;83;21001;-79
2021/08/08 03:03:17;;;;;;;5.67;3.95;;;;;;;16.51;87.57;97309.42;1728222;83;21143;-73
2021/08/08 03:05:43;;;;;;;17.42;5.37;;;;;;;16.55;87.49;97314.45;1728009;82;20819;-79
2021/08/08 03:08:09;;;;;;;4.65;4.08;;;;;;;16.59;87.73;97311.28;1728199;83;20895;-79
2021/08/08 03:10:35;;;;;;;5.95;3.83;;;;;;;16.63;87.60;97315.73;1728144;83;20879;-73
2021/08/08 03:13:01;;;;;;;6.97;4.00;;;;;;;16.66;87.78;97310.16;1728365;83;20875;-73
2021/08/08 03:15:27;;;;;;;5.72;3.40;;;;;;;16.70;89.02;97319.33;1728094;82;21392;-79
2021/08/08 03:17:53;;;;;;;5.47;3.67;;;;;;;16.73;87.99;97329.59;1728231;82;20852;-73
2021/08/08 03:20:20;;;;;;;6.80;4.33;;;;;;;16.80;88.19;97341.36;1728074;82;20891;-79
2021/08/08 03:22:47;;;;;;;6.47;5.70;;;;;;;16.83;88.21;97350.25;1728227;83;21376;-73
2021/08/08 03:25:13;;;;;;;6.62;4.05;;;;;;;16.82;87.65;97359.59;1728091;82;20955;-73
2021/08/08 03:27:39;;;;;;;7.00;4.40;;;;;;;16.79;88.09;97362.45;1728327;83;21321;-73
2021/08/08 03:30:10;;;;;;;6.67;4.42;;;;;;;16.74;87.81;97365.95;1728149;83;20831;-73
2021/08/08 03:32:34;;;;;;;5.80;4.00;;;;;;;16.76;90.31;97367.80;1726754;82;20901;-73
2021/08/08 03:35:00;;;;;;;8.20;5.75;;;;;;;16.84;88.95;97392.92;1728030;82;21423;-78
2021/08/08 03:37:26;;;;;;;6.10;3.80;;;;;;;16.91;88.37;97397.26;1728293;83;20844;-73
2021/08/08 03:39:52;;;;;;;5.62;3.92;;;;;;;16.97;88.44;97410.17;1728318;83;21330;-79
2021/08/08 03:42:18;;;;;;;7.50;5.70;;;;;;;16.99;87.95;97416.91;1728194;82;20827;-73
2021/08/08 03:44:44;;;;;;;7.85;4.90;;;;;;;17.01;88.13;97422.87;1728010;82;20891;-73
2021/08/08 03:47:10;;;;;;;7.80;4.15;;;;;;;17.00;88.28;97423.17;1728353;83;21394;-79
2021/08/08 03:49:36;;;;;;;6.92;4.00;;;;;;;17.05;88.06;97433.93;1728409;83;20848;-78
2021/08/08 03:52:02;;;;;;;8.10;3.98;;;;;;;17.10;88.00;97420.05;1728265;82;20902;-73
2021/08/08 03:54:28;;;;;;;5.30;4.10;;;;;;;17.20;88.19;97430.00;1728114;83;20903;-78
2021/08/08 03:56:54;;;;;;;7.17;3.72;;;;;;;17.32;87.91;97429.80;1728239;83;20947;-73
2021/08/08 03:59:20;;;;;;;6.40;3.30;;;;;;;17.58;87.88;97440.48;1727986;83;20935;-79
2021/08/08 04:01:46;;;;;;;4.50;2.62;;;;;;;17.92;87.29;97434.63;1728374;83;21628;-73
2021/08/08 04:04:11;;;;;;;4.70;2.67;;;;;;;18.41;86.53;97445.60;1728119;82;21206;-79
2021/08/08 04:06:37;;;;;;;5.60;3.20;;;;;;;18.83;85.05;97442.02;1728202;83;20907;-79
2021/08/08 04:09:03;;;;;;;5.03;2.87;;;;;;;19.07;84.53;97460.94;1728208;83;20994;-79
2021/08/08 04:11:29;;;;;;;4.15;2.72;;;;;;;19.27;83.53;97480.53;1728035;83;20863;-78
2021/08/08 04:13:55;;;;;;;1.60;1.25;;;;;;;19.49;82.24;97483.31;1728210;83;20899;-79
2021/08/08 04:16:21;;;;;;;2.08;1.60;;;;;;;19.86;77.87;97501.01;1727991;82;21328;-79
2021/08/08 04:18:47;;;;;;;1.98;1.37;;;;;;;19.85;77.63;97498.03;1729008;82;20898;-73
2021/08/08 04:21:13;;;;;;;2.22;1.42;;;;;;;19.92;75.35;97507.85;1741312;82;20893;-80
2021/08/08 04:23:39;;;;;;;3.05;1.30;;;;;;;19.92;75.71;97522.39;1740424;82;20921;-79
2021/08/08 04:26:05;;;;;;;4.45;1.20;;;;;;;19.91;74.87;97514.47;1736122;81;20906;-79
2021/08/08 04:28:31;;;;;;;2.42;1.20;;;;;;;19.86;73.81;97525.17;1736359;81;21082;-76
2021/08/08 04:30:57;;;;;;;3.42;1.17;;;;;;;19.80;72.60;97532.06;1736034;82;20914;-73
2021/08/08 04:33:23;;;;;;;2.22;1.10;;;;;;;19.70;72.58;97547.70;1736349;82;20871;-79
2021/08/08 04:35:48;;;;;;;1.27;0.90;;;;;;;19.66;71.90;97546.81;1736084;82;20835;-79
2021/08/08 04:38:14;;;;;;;3.05;1.10;;;;;;;19.60;72.18;97541.34;1736376;82;21564;-78
2021/08/08 04:40:40;;;;;;;1.67;1.12;;;;;;;19.50;72.94;97545.93;1736437;82;20997;-74
2021/08/08 04:43:06;;;;;;;1.75;1.10;;;;;;;19.45;73.18;97551.88;1736201;82;20913;-79
2021/08/08 04:45:32;;;;;;;9.08;1.80;;;;;;;19.40;73.07;97557.64;1736107;82;21599;-73
2021/08/08 04:47:58;;;;;;;5.05;1.02;;;;;;;19.31;73.68;97564.39;1736088;82;21045;-73
2021/08/08 04:50:24;;;;;;;5.20;1.50;;;;;;;19.27;73.89;97578.61;1736376;82;20926;-79
2021/08/08 04:52:50;;;;;;;2.45;1.17;;;;;;;19.27;73.80;97586.85;1736375;82;21717;-78
2021/08/08 04:55:16;;;;;;;1.95;1.00;;;;;;;19.23;73.92;97592.25;1736264;82;20935;-78
2021/08/08 04:57:42;;;;;;;1.82;1.05;;;;;;;19.17;73.94;97599.12;1736105;82;21014;-79
2021/08/08 05:00:09;;;;;;;3.45;1.30;;;;;;;19.11;73.98;97595.80;1736469;81;20922;-79
2021/08/08 05:02:35;;;;;;;1.60;1.20;;;;;;;19.10;73.72;97600.27;1736494;82;20868;-73
2021/08/08 05:05:05;;;;;;;2.87;1.35;;;;;;;19.07;74.07;97602.34;1740179;81;22055;-73
2021/08/08 05:07:34;;;;;;;1.72;1.35;;;;;;;19.07;74.21;97608.63;1736297;82;20955;-78
2021/08/08 05:10:00;;;;;;;3.37;1.22;;;;;;;19.01;74.63;97606.45;1715674;82;21029;-74
2021/08/08 05:12:26;;;;;;;2.37;1.00;;;;;;;18.95;74.65;97613.31;1736553;82;20902;-79
2021/08/08 05:14:52;;;;;;;1.82;0.95;;;;;;;18.96;74.48;97614.34;1736454;82;20906;-74
2021/08/08 05:17:18;;;;;;;1.40;1.00;;;;;;;18.87;74.21;97621.32;1736371;81;21306;-74
2021/08/08 05:19:44;;;;;;;1.75;0.80;;;;;;;18.85;74.58;97620.07;1739337;81;21053;-74
2021/08/08 05:22:09;;;;;;;1.60;1.00;;;;;;;18.83;74.43;97622.36;1744056;81;20910;-79
2021/08/08 05:24:35;;;;;;;2.08;1.10;;;;;;;18.85;74.33;97631.84;1736623;82;20871;-79
2021/08/08 05:27:01;;;;;;;3.20;0.90;;;;;;;18.85;74.37;97629.67;1736375;82;20974;-74
2021/08/08 05:29:27;;;;;;;2.77;0.90;;;;;;;18.86;74.37;97633.45;1740318;81;21150;-79
2021/08/08 05:31:53;;;;;;;3.10;1.80;;;;;;;18.87;74.60;97630.92;1736133;82;21496;-74
2021/08/08 05:34:19;;;;;;;2.00;1.10;;;;;;;18.88;74.64;97627.61;1736315;81;20863;-74
2021/08/08 05:36:45;;;;;;;4.20;3.17;;;;;;;18.93;74.49;97632.08;1736153;81;20831;-79
2021/08/08 05:39:11;;;;;;;1.75;1.37;;;;;;;18.88;75.76;97638.05;1736285;82;21568;-74
2021/08/08 05:41:37;;;;;;;2.40;1.87;;;;;;;18.91;75.53;97657.71;1736214;81;21227;-79
2021/08/08 05:44:03;;;;;;;1.32;1.10;;;;;;;18.94;75.28;97661.93;1736402;82;20851;-79
2021/08/08 05:46:29;;;;;;;5.37;1.32;;;;;;;18.91;75.02;97657.14;1736358;82;21009;-79
2021/08/08 05:48:55;;;;;;;2.98;1.47;;;;;;;18.88;75.16;97654.52;1736094;82;20846;-79
2021/08/08 05:51:21;;;;;;;3.52;1.77;;;;;;;18.91;75.08;97656.34;1736355;82;20929;-79
2021/08/08 05:53:47;;;;;;;3.83;2.22;;;;;;;18.87;74.79;97657.58;1736366;82;21139;-74
2021/08/08 05:56:13;;;;;;;4.22;1.80;;;;;;;18.94;75.16;97667.42;1736290;82;20934;-74
2021/08/08 05:58:38;;;;;;;3.17;1.22;;;;;;;19.02;74.62;97667.08;1736327;82;20858;-79
2021/08/08 06:01:04;;;;;;;2.30;1.15;;;;;;;19.12;73.73;97663.88;1736337;82;20866;-79
2021/08/08 06:03:30;;;;;;;2.35;1.27;;;;;;;19.21;73.81;97670.05;1736337;82;20875;-74
2021/08/08 06:05:56;;;;;;;1.77;1.12;;;;;;;19.18;72.10;97669.95;1736383;81;21135;-74
2021/08/08 06:08:22;;;;;;;4.12;1.22;;;;;;;19.19;72.83;97675.09;1736156;82;20921;-74
2021/08/08 06:10:49;;;;;;;1.85;1.22;;;;;;;19.31;72.66;97675.64;1736427;81;20922;-79
2021/08/08 06:13:15;;;;;;;1.42;1.00;;;;;;;19.30;72.87;97670.72;1736306;82;20950;-74
2021/08/08 06:15:41;;;;;;;2.58;1.22;;;;;;;19.40;72.77;97670.28;1736431;82;20894;-78
2021/08/08 06:18:07;;;;;;;1.85;1.30;;;;;;;19.49;72.55;97677.59;1736289;81;21253;-76
2021/08/08 06:20:33;;;;;;;1.72;1.10;;;;;;;19.44;71.98;97677.24;1741142;81;20850;-74
2021/08/08 06:22:59;;;;;;;1.75;1.32;;;;;;;19.44;72.18;97690.98;1746575;82;20969;-74
2021/08/08 06:25:25;;;;;;;3.22;1.30;;;;;;;19.36;71.87;97695.45;1740102;82;20851;-79
2021/08/08 06:27:50;;;;;;;1.77;1.27;;;;;;;19.33;72.41;97709.09;1736207;81;20875;-74
2021/08/08 06:30:17;;;;;;;2.05;1.07;;;;;;;19.27;72.47;97709.88;1736229;82;21355;-74
2021/08/08 06:32:43;;;;;;;2.20;1.20;;;;;;;19.16;72.39;97719.73;1736291;82;20918;-79
2021/08/08 06:35:10;;;;;;;2.83;1.70;;;;;;;19.13;72.87;97721.77;1736267;82;21025;-74
2021/08/08 06:37:36;;;;;;;3.40;1.60;;;;;;;19.01;73.50;97726.69;1736256;82;21055;-76
2021/08/08 06:40:03;;;;;;;2.17;1.65;;;;;;;19.05;73.33;97735.83;1736131;82;20937;-74
2021/08/08 06:42:29;;;;;;;1.27;1.02;;;;;;;19.08;73.33;97736.54;1736293;82;21070;-80
2021/08/08 06:44:55;;;;;;;4.20;1.72;;;;;;;19.07;73.56;97738.26;1736452;82;20925;-74
2021/08/08 06:47:21;;;;;;;2.33;1.40;;;;;;;19.05;74.00;97741.32;1736140;82;20894;-75
2021/08/08 06:49:47;;;;;;;2.40;1.20;;;;;;;19.02;75.11;97748.08;1736396;82;20947;-80
2021/08/08 06:52:12;;;;;;;1.85;1.10;;;;;;;18.95;75.65;97742.34;1736167;82;21017;-80
2021/08/08 06:54:38;;;;;;;2.55;1.10;;;;;;;18.95;75.53;97755.50;1736393;82;21089;-74
2021/08/08 06:57:04;;;;;;;1.60;1.00;;;;;;;18.92;77.62;97752.64;1736211;82;20890;-73
2021/08/08 06:59:30;;;;;;;3.25;1.25;;;;;;;18.87;76.90;97765.43;1736311;82;21560;-78
2021/08/08 07:01:57;;;;;;;3.45;1.20;;;;;;;18.77;77.54;97758.20;1736097;82;20812;-80
2021/08/08 07:04:24;;;;;;;1.42;0.88;;;;;;;18.80;76.89;97772.61;1736120;82;21410;-73
2021/08/08 07:06:50;;;;;;;3.17;1.60;;;;;;;18.83;76.58;97771.38;1736305;82;21227;-74
2021/08/08 07:09:16;;;;;;;1.82;1.57;;;;;;;18.83;78.65;97776.08;1735927;82;21332;-74
2021/08/08 07:11:42;;;;;;;3.80;1.30;;;;;;;18.86;77.99;97770.69;1736308;82;20867;-74
2021/08/08 07:14:08;;;;;;;1.90;1.02;;;;;;;18.95;77.73;97769.80;1736260;81;20851;-80
2021/08/08 07:16:34;;;;;;;2.55;1.20;;;;;;;18.96;77.99;97768.08;1736345;82;21328;-80
2021/08/08 07:19:00;;;;;;;1.50;0.82;;;;;;;19.03;77.92;97766.95;1735994;82;21186;-73
2021/08/08 07:21:26;;;;;;;6.17;4.30;;;;;;;19.05;77.13;97769.35;1736112;81;20954;-74
2021/08/08 07:23:52;;;;;;;3.52;2.58;;;;;;;19.12;76.98;97766.85;1734094;82;20859;-73
2021/08/08 07:26:18;;;;;;;10.82;7.20;;;;;;;19.33;76.71;97783.25;1728005;83;21356;-80
2021/08/08 07:28:44;;;;;;;1.50;1.05;;;;;;;19.49;76.45;97778.68;1728147;83;20871;-74
2021/08/08 07:31:10;;;;;;;1.10;0.85;;;;;;;19.56;75.31;97778.91;1728163;83;21414;-80
2021/08/08 07:33:36;;;;;;;1.40;1.00;;;;;;;19.63;75.58;97788.77;1728159;83;20812;-73
2021/08/08 07:36:02;;;;;;;1.47;1.10;;;;;;;19.78;74.22;97794.72;1728298;82;20894;-80
2021/08/08 07:38:28;;;;;;;0.98;0.78;;;;;;;19.51;74.13;97790.13;1728227;83;21332;-80
2021/08/08 07:40:54;;;;;;;2.05;1.37;;;;;;;19.49;74.58;97796.54;1728168;83;20855;-74
2021/08/08 07:43:20;;;;;;;1.40;1.02;;;;;;;19.49;74.78;97804.78;1728261;82;21014;-74
2021/08/08 07:45:46;;;;;;;1.00;0.78;;;;;;;19.45;74.90;97806.59;1728252;83;21485;-80
2021/08/08 07:48:12;;;;;;;3.98;1.50;;;;;;;19.33;74.91;97799.16;1728298;82;20871;-80
2021/08/08 07:50:38;;;;;;;1.45;1.00;;;;;;;19.32;74.75;97811.87;1728211;83;20883;-79
2021/08/08 07:53:06;;;;;;;2.47;1.22;;;;;;;19.33;74.70;97814.27;1728286;82;20950;-80
2021/08/08 07:55:32;;;;;;;5.20;3.33;;;;;;;19.44;75.19;97803.63;1728435;83;22033;-74
2021/08/08 07:57:58;;;;;;;2.33;1.20;;;;;;;19.66;75.08;97808.70;1728134;82;20867;-80
2021/08/08 08:00:24;;;;;;;2.20;1.20;;;;;;;19.88;74.97;97803.86;1728259;83;20946;-80
2021/08/08 08:02:50;;;;;;;1.05;0.70;;;;;;;20.08;74.66;97786.44;1728213;82;21026;-74
2021/08/08 08:05:16;;;;;;;1.80;1.25;;;;;;;20.48;73.89;97778.17;1728446;83;20985;-76
2021/08/08 08:07:42;;;;;;;1.42;1.00;;;;;;;20.86;72.84;97769.98;1728058;83;21847;-80
2021/08/08 08:10:09;;;;;;;0.82;0.70;;;;;;;21.05;71.66;97777.55;1728145;83;20847;-80
2021/08/08 08:12:35;;;;;;;0.93;0.80;;;;;;;21.19;70.61;97773.77;1728010;83;20931;-80
2021/08/08 08:15:00;;;;;;;1.55;1.02;;;;;;;22.06;68.32;97765.82;1728394;83;21457;-74
2021/08/08 08:17:26;;;;;;;2.02;1.12;;;;;;;23.33;66.84;97771.48;1728185;83;20859;-80
2021/08/08 08:19:52;;;;;;;2.62;1.20;;;;;;;24.25;59.67;97769.30;1728203;82;21067;-80
2021/08/08 08:22:18;;;;;;;4.53;1.22;;;;;;;25.10;60.32;97767.34;1728072;83;20958;-75
2021/08/08 08:24:45;;;;;;;2.45;0.90;;;;;;;26.28;57.71;97761.49;1728349;83;20918;-75
2021/08/08 08:27:11;;;;;;;1.52;0.78;;;;;;;26.88;52.41;97742.88;1727943;83;21010;-80
2021/08/08 08:29:38;;;;;;;1.72;1.42;;;;;;;27.41;48.69;97738.58;1728242;83;20994;-75
2021/08/08 08:32:06;;;;;;;1.62;0.93;;;;;;;27.14;51.88;97742.34;1707469;83;21167;-75
2021/08/08 08:34:32;;;;;;;0.68;0.65;;;;;;;28.33;49.94;97737.05;1728420;83;20999;-75
2021/08/08 08:36:58;;;;;;;1.00;0.90;;;;;;;29.13;43.00;97736.23;1724546;83;20998;-81
2021/08/08 08:39:24;;;;;;;1.35;0.70;;;;;;;29.06;44.16;97746.67;1728252;82;20945;-81
2021/08/08 08:41:52;;;;;;;1.67;0.70;;;;;;;29.44;43.09;97759.52;1728240;82;21612;-81
2021/08/08 08:44:18;;;;;;;;;;;;;;;28.94;44.48;97768.23;1709956;83;21443;-81
2021/08/08 08:46:44;;;;;;;2.25;0.98;;;;;;;28.01;46.70;97787.25;1728235;82;20190;-80
2021/08/08 08:49:10;;;;;;;1.82;1.72;;;;;;;27.11;48.82;97791.80;1728245;83;20993;-81
2021/08/08 08:51:40;;;;;;;1.95;1.00;;;;;;;26.58;48.28;97793.81;1728285;82;20827;-74
2021/08/08 08:54:06;;;;;;;1.57;0.90;;;;;;;25.74;47.65;97801.22;1724636;83;21359;-74
2021/08/08 08:56:32;;;;;;;2.45;1.12;;;;;;;25.00;49.89;97793.75;1728311;82;22010;-81
2021/08/08 08:58:58;;;;;;;2.55;0.85;;;;;;;24.63;50.92;97800.67;1728196;83;20874;-81
2021/08/08 09:01:24;;;;;;;1.65;0.90;;;;;;;24.49;51.81;97809.59;1728226;83;20951;-75
2021/08/08 09:03:50;;;;;;;1.42;0.70;;;;;;;24.16;52.19;97803.38;1728139;82;20812;-81
2021/08/08 09:06:16;;;;;;;0.95;0.70;;;;;;;24.36;52.08;97799.35;1728527;83;20851;-81
2021/08/08 09:08:42;;;;;;;0.70;0.70;;;;;;;24.69;51.68;97796.38;1731823;82;22053;-81
2021/08/08 09:11:09;;;;;;;0.98;0.80;;;;;;;25.98;49.98;97801.17;1728116;82;21038;-81
2021/08/08 09:13:55;;;;;;;3.05;1.02;;;;;;;27.57;48.36;97793.23;1728277;83;20908;-81
2021/08/08 09:16:24;;;;;;;1.30;0.85;;;;;;;28.26;42.35;97798.33;1728355;83;20995;-76
2021/08/08 09:18:56;;;;;;;2.87;1.05;;;;;;;29.05;41.50;97790.47;1728242;83;21014;-81
2021/08/08 09:21:22;;;;;;;2.12;0.93;;;;;;;30.07;38.76;97785.89;1732793;82;21165;-76
2021/08/08 09:23:57;;;;;;;0.90;0.60;;;;;;;31.23;36.12;97784.13;1736927;82;20934;-82
2021/08/08 09:26:28;;;;;;;1.47;0.80;;;;;;;31.96;33.69;97777.16;1736262;82;20955;-82
2021/08/08 09:29:11;;;;;;;1.15;0.80;;;;;;;31.94;35.13;97776.77;1736315;82;21014;-82
2021/08/08 09:31:47;;;;;;;0.88;0.72;;;;;;;32.22;34.74;97773.27;1736001;81;20915;-81
2021/08/08 09:34:34;;;;;;;1.87;1.27;;;;;;;32.97;34.60;97771.14;1735786;81;21822;-76
2021/08/08 09:37:06;;;;;;;0.70;0.60;;;;;;;34.28;31.55;97766.95;1736513;82;21029;-76
2021/08/08 09:39:42;;;;;;;1.10;0.68;;;;;;;34.42;30.25;97755.31;1736488;82;21022;-81
2021/08/08 09:42:25;;;;;;;3.33;1.07;;;;;;;32.44;33.43;97759.64;1736434;82;20892;-81
2021/08/08 09:45:06;;;;;;;3.33;1.02;;;;;;;33.50;33.20;97762.72;1736514;81;20962;-76
2021/08/08 09:47:43;;;;;;;0.90;0.80;;;;;;;34.46;31.96;97765.86;1736253;82;20939;-82
2021/08/08 09:50:15;;;;;;;0.75;0.60;;;;;;;34.96;30.81;97763.79;1735781;82;26788;-77
2021/08/08 09:52:50;;;;;;;0.93;0.60;;;;;;;35.02;30.77;97761.97;1736092;81;21461;-77
2021/08/08 09:55:38;;;;;;;2.80;0.80;;;;;;;35.93;30.03;97774.16;1736513;82;20927;-76
2021/08/08 09:58:12;;;;;;;1.12;0.60;;;;;;;36.78;29.52;97777.35;1735488;82;21006;-76
2021/08/08 10:00:40;;;;;;;1.30;0.72;;;;;;;37.69;26.37;97780.44;1731269;82;21121;-76
2021/08/08 10:03:11;;;;;;;0.85;0.62;;;;;;;37.07;27.59;97781.92;1736142;82;27009;-82
2021/08/08 10:05:38;;;;;;;0.75;0.60;;;;;;;37.52;27.62;97779.32;1736455;82;20907;-82
2021/08/08 10:08:19;;;;;;;1.35;0.80;;;;;;;37.84;25.03;97784.27;1736445;82;20966;-82
2021/08/08 10:10:49;;;;;;;0.88;0.70;;;;;;;37.36;25.01;97790.09;1736217;82;21312;-81
2021/08/08 10:13:30;;;;;;;0.85;0.80;;;;;;;35.66;26.90;97780.91;1736186;82;21125;-77
2021/08/08 10:15:58;;;;;;;3.60;0.70;;;;;;;35.56;27.81;97781.44;1736385;82;20891;-82
2021/08/08 10:18:29;;;;;;;0.65;0.65;;;;;;;36.65;25.98;97783.69;1736135;82;20962;-77
2021/08/08 10:20:55;;;;;;;0.85;0.72;;;;;;;36.67;25.55;97784.03;1734435;81;21034;-82
2021/08/08 10:23:21;;;;;;;1.57;0.90;;;;;;;36.80;26.25;97788.17;1725844;82;21602;-76
2021/08/08 10:25:49;;;;;;;1.40;0.70;;;;;;;37.57;24.51;97783.56;1726867;83;21125;-82
2021/08/08 10:28:15;;;;;;;0.90;0.80;;;;;;;37.69;24.30;97784.08;1727987;83;20914;-82
2021/08/08 10:30:41;;;;;;;1.07;0.80;;;;;;;36.98;25.26;97787.67;1728365;83;20882;-82
2021/08/08 10:33:07;;;;;;;1.07;0.65;;;;;;;37.56;24.65;97790.47;1728009;82;21375;-77
2021/08/08 10:35:39;;;;;;;0.90;0.70;;;;;;;38.00;22.87;97804.41;1728123;82;20959;-81
2021/08/08 10:38:05;;;;;;;0.95;0.80;;;;;;;37.71;23.88;97792.08;1727986;83;21384;-76
2021/08/08 10:40:37;;;;;;;0.62;0.50;;;;;;;38.18;23.45;97807.25;1728335;83;21019;-82
2021/08/08 10:43:00;;;;;;;0.75;0.50;;;;;;;38.78;23.02;97816.55;1727072;82;21073;-76
2021/08/08 10:45:30;;;;;;;1.22;0.57;;;;;;;38.78;21.42;97810.89;1728110;83;21472;-77
2021/08/08 10:47:59;;;;;;;2.30;0.98;;;;;;;38.63;22.61;97815.63;1727918;82;20947;-76
2021/08/08 10:50:38;;;;;;;2.60;0.70;;;;;;;38.84;22.02;97817.49;1728334;82;21074;-82
2021/08/08 10:53:05;;;;;;;1.10;0.80;;;;;;;38.55;22.38;97825.69;1728110;82;21011;-82
2021/08/08 10:55:31;;;;;;;1.30;0.88;;;;;;;38.89;22.09;97823.94;1728413;82;21022;-82
2021/08/08 10:58:00;;;;;;;1.42;0.75;;;;;;;37.37;23.41;97824.94;1707720;83;20919;-82
2021/08/08 11:00:35;;;;;;;0.98;0.88;;;;;;;37.66;23.15;97823.77;1728293;83;20979;-82
2021/08/08 11:03:17;;;;;;;0.78;0.65;;;;;;;37.30;22.89;97810.27;1728535;82;20991;-77
2021/08/08 11:05:43;;;;;;;0.80;0.62;;;;;;;37.51;22.91;97817.28;1728241;83;20963;-81
2021/08/08 11:08:11;;;;;;;1.92;1.10;;;;;;;36.14;24.61;97829.80;1728152;82;21003;-75
2021/08/08 11:10:40;;;;;;;1.00;0.78;;;;;;;35.61;24.99;97831.56;1727776;82;21364;-81
2021/08/08 11:13:24;;;;;;;1.20;0.70;;;;;;;35.86;25.03;97837.16;1727383;83;20957;-79
2021/08/08 11:15:51;;;;;;;1.57;0.60;;;;;;;36.91;24.04;97827.47;1728269;83;21024;-80
2021/08/08 11:18:18;;;;;;;1.95;0.70;;;;;;;37.74;23.87;97825.84;1728175;82;20927;-82
2021/08/08 11:20:44;;;;;;;0.78;0.70;;;;;;;38.42;23.20;97833.54;1729036;82;21434;-81
2021/08/08 11:23:10;;;;;;;0.90;0.70;;;;;;;38.84;22.35;97827.41;1739706;82;20847;-76
2021/08/08 11:25:42;;;;;;;3.08;0.60;;;;;;;39.82;20.83;97827.23;1736455;82;20891;-82
2021/08/08 11:28:09;;;;;;;2.30;0.65;;;;;;;39.23;21.63;97832.52;1735161;82;21124;-81
2021/08/08 11:30:44;;;;;;;0.72;0.70;;;;;;;39.00;21.02;97825.48;1736474;82;21328;-76
2021/08/08 11:33:13;;;;;;;0.68;0.60;;;;;;;38.62;22.19;97826.13;1736186;81;20959;-77